Time;durP1;ratioP1;P1;durP2;ratioP2;P2;SDS_P1;SDS_P2;PMS_P1;PMS_P2;Temp;Humidity;BMP_temperature;BMP_pressure;BME280_temperature;BME280_humidity;BME280_pressure;Samples;Min_cycle;Max_cycle;Signal;HPM_P1;HPM_P2
2023/02/11 00:00:59;;;;;;;50.20;24.45;;;;;;;;;;5030095;28;20459;-49
2023/02/11 00:03:26;;;;;;;51.28;22.75;;;;;;;;;;5030032;28;20091;-52
2023/02/11 00:06:00;;;;;;;50.28;23.92;;;;;;;;;;5039418;28;20037;-50
2023/02/11 00:08:28;;;;;;;52.33;24.63;;;;;;;;;;5038061;28;20111;-50
2023/02/11 00:10:57;;;;;;;48.50;23.65;;;;;;;;;;5030129;28;20053;-49
2023/02/11 00:13:26;;;;;;;48.00;23.90;;;;;;;;;;5029470;28;20042;-49
2023/02/11 00:15:54;;;;;;;43.58;22.02;;;;;;;;;;5030003;28;20045;-49
2023/02/11 00:18:22;;;;;;;52.08;23.83;;;;;;;;;;5030444;28;20457;-49
2023/02/11 00:20:50;;;;;;;47.17;24.55;;;;;;;;;;5029901;28;20045;-49
2023/02/11 00:23:17;;;;;;;48.88;22.50;;;;;;;;;;5012318;28;20058;-49
2023/02/11 00:25:45;;;;;;;52.53;24.08;;;;;;;;;;5025237;28;20049;-50
2023/02/11 00:28:13;;;;;;;45.78;23.10;;;;;;;;;;5033169;28;20096;-51
2023/02/11 00:30:41;;;;;;;54.03;24.40;;;;;;;;;;5033898;28;20410;-49
2023/02/11 00:33:14;;;;;;;51.90;25.83;;;;;;;;;;5032676;28;20064;-51
2023/02/11 00:35:40;;;;;;;49.67;24.50;;;;;;;;;;5032206;28;20049;-52
2023/02/11 00:38:07;;;;;;;47.20;22.27;;;;;;;;;;5033103;28;20071;-53
2023/02/11 00:40:34;;;;;;;49.42;24.38;;;;;;;;;;5033568;28;20461;-51
2023/02/11 00:43:01;;;;;;;48.20;23.25;;;;;;;;;;5033114;28;20060;-52
2023/02/11 00:45:29;;;;;;;52.25;24.75;;;;;;;;;;5033338;28;20111;-52
2023/02/11 00:47:57;;;;;;;52.35;23.58;;;;;;;;;;5032747;28;20056;-53
2023/02/11 00:50:24;;;;;;;49.28;23.95;;;;;;;;;;5032648;28;20053;-49
2023/02/11 00:52:51;;;;;;;54.90;25.05;;;;;;;;;;5032365;28;20534;-48
2023/02/11 00:55:19;;;;;;;50.85;24.58;;;;;;;;;;5033506;28;20521;-51
2023/02/11 00:57:45;;;;;;;52.13;25.00;;;;;;;;;;5032891;28;20049;-48
2023/02/11 01:00:14;;;;;;;50.92;24.95;;;;;;;;;;5032829;28;20108;-53
2023/02/11 01:02:41;;;;;;;47.72;23.17;;;;;;;;;;5032364;28;20099;-49
2023/02/11 01:05:09;;;;;;;51.00;25.63;;;;;;;;;;5033059;28;20119;-56
2023/02/11 01:07:36;;;;;;;46.45;22.33;;;;;;;;;;5032913;28;20107;-55
2023/02/11 01:10:03;;;;;;;42.50;23.23;;;;;;;;;;5032996;28;20050;-57
2023/02/11 01:12:32;;;;;;;43.67;21.58;;;;;;;;;;5033131;28;20375;-59
2023/02/11 01:14:59;;;;;;;41.72;23.17;;;;;;;;;;5032841;28;20645;-54
2023/02/11 01:17:26;;;;;;;44.88;22.35;;;;;;;;;;5032415;28;20540;-55
2023/02/11 01:19:52;;;;;;;44.10;21.90;;;;;;;;;;5032825;28;20506;-53
2023/02/11 01:22:21;;;;;;;49.75;23.80;;;;;;;;;;5032680;28;20041;-56
2023/02/11 01:24:48;;;;;;;45.10;21.42;;;;;;;;;;5032678;28;20045;-54
2023/02/11 01:27:15;;;;;;;49.50;23.00;;;;;;;;;;5032562;28;20050;-53
2023/02/11 01:29:41;;;;;;;46.08;23.33;;;;;;;;;;5032482;28;20056;-53
2023/02/11 01:32:08;;;;;;;49.42;22.40;;;;;;;;;;5032577;28;20053;-55
2023/02/11 01:34:35;;;;;;;40.75;21.33;;;;;;;;;;5032332;28;20450;-56
2023/02/11 01:37:02;;;;;;;40.88;19.67;;;;;;;;;;5031782;28;20072;-54
2023/02/11 01:39:33;;;;;;;39.45;20.65;;;;;;;;;;5028518;28;20046;-51
2023/02/11 01:42:00;;;;;;;40.10;19.42;;;;;;;;;;5038284;28;20085;-52
2023/02/11 01:44:30;;;;;;;39.42;19.10;;;;;;;;;;5042911;28;20061;-50
2023/02/11 01:46:57;;;;;;;37.78;18.02;;;;;;;;;;5042010;28;20045;-50
2023/02/11 01:49:28;;;;;;;35.55;18.30;;;;;;;;;;5042247;28;20049;-51
2023/02/11 01:51:57;;;;;;;;;;;;;;;;;;5037856;28;20415;-52
2023/02/11 01:57:22;;;;;;;39.92;16.77;;;;;;;;;;4991700;28;20078;-47
2023/02/11 02:00:01;;;;;;;33.38;16.48;;;;;;;;;;5033434;28;20198;-50
2023/02/11 02:02:40;;;;;;;33.97;14.45;;;;;;;;;;5041311;28;20482;-52
2023/02/11 02:05:17;;;;;;;29.38;16.45;;;;;;;;;;5044787;28;20065;-51
2023/02/11 02:07:52;;;;;;;31.05;16.20;;;;;;;;;;5048742;28;20033;-51
2023/02/11 02:10:26;;;;;;;28.70;15.40;;;;;;;;;;5042445;28;20107;-52
2023/02/11 02:12:55;;;;;;;31.00;16.45;;;;;;;;;;5041795;28;20556;-53
2023/02/11 02:15:27;;;;;;;37.83;17.58;;;;;;;;;;5042490;28;20076;-52
2023/02/11 02:18:34;;;;;;;37.95;18.45;;;;;;;;;;5041865;28;20055;-50
2023/02/11 02:21:38;;;;;;;40.45;19.48;;;;;;;;;;4986072;28;20054;-51
2023/02/11 02:24:38;;;;;;;40.90;20.08;;;;;;;;;;4999305;28;20050;-52
2023/02/11 02:27:35;;;;;;;37.67;18.87;;;;;;;;;;5035792;28;20522;-51
2023/02/11 02:30:52;;;;;;;37.03;18.60;;;;;;;;;;5041509;28;20061;-52
2023/02/11 02:33:41;;;;;;;30.63;17.25;;;;;;;;;;5023619;28;20049;-52
2023/02/11 02:36:19;;;;;;;35.58;18.48;;;;;;;;;;5041872;28;20045;-50
2023/02/11 02:38:53;;;;;;;36.35;17.70;;;;;;;;;;5036047;28;20053;-53
2023/02/11 02:41:24;;;;;;;37.25;17.60;;;;;;;;;;5022208;28;20110;-50
2023/02/11 02:43:51;;;;;;;39.10;18.77;;;;;;;;;;5032163;28;20045;-52
2023/02/11 02:46:23;;;;;;;32.83;17.55;;;;;;;;;;5041523;28;20456;-51
2023/02/11 02:48:53;;;;;;;32.05;18.17;;;;;;;;;;5041076;28;20072;-53
2023/02/11 02:51:47;;;;;;;34.25;17.10;;;;;;;;;;5041329;28;20061;-49
2023/02/11 02:54:55;;;;;;;37.00;18.17;;;;;;;;;;5035445;28;20052;-51
2023/02/11 02:57:30;;;;;;;35.05;16.73;;;;;;;;;;4999684;28;20085;-50
2023/02/11 03:00:13;;;;;;;38.33;17.00;;;;;;;;;;5036450;28;20141;-49
2023/02/11 03:02:51;;;;;;;39.78;18.67;;;;;;;;;;5040428;28;20045;-51
2023/02/11 03:05:27;;;;;;;35.80;17.52;;;;;;;;;;5037662;28;20054;-51
2023/02/11 03:08:00;;;;;;;35.58;17.20;;;;;;;;;;5040168;28;20045;-51
2023/02/11 03:10:31;;;;;;;38.53;18.75;;;;;;;;;;5042451;28;20122;-50
2023/02/11 03:12:58;;;;;;;31.15;16.88;;;;;;;;;;5046246;28;20490;-48
2023/02/11 03:15:28;;;;;;;33.90;16.27;;;;;;;;;;5052749;28;20045;-51
2023/02/11 03:17:58;;;;;;;38.03;16.23;;;;;;;;;;5041522;28;20049;-51
2023/02/11 03:20:29;;;;;;;35.30;16.93;;;;;;;;;;5025788;28;20112;-52
2023/02/11 03:22:56;;;;;;;;;;;;;;;;;;5023930;28;20041;-51
2023/02/11 03:25:29;;;;;;;30.80;15.30;;;;;;;;;;5041599;28;19944;-52
2023/02/11 03:28:04;;;;;;;31.30;15.93;;;;;;;;;;5039995;28;20034;-53
2023/02/11 03:30:35;;;;;;;27.55;14.50;;;;;;;;;;5040823;28;20049;-53
2023/02/11 03:33:08;;;;;;;30.15;14.13;;;;;;;;;;5033076;28;20053;-53
2023/02/11 03:35:41;;;;;;;28.35;14.75;;;;;;;;;;5040636;28;20046;-48
2023/02/11 03:38:14;;;;;;;31.02;14.10;;;;;;;;;;5040458;28;20053;-50
2023/02/11 03:40:44;;;;;;;32.88;15.77;;;;;;;;;;5040223;28;20042;-52
2023/02/11 03:43:16;;;;;;;29.05;14.80;;;;;;;;;;5039987;28;20136;-51
2023/02/11 03:45:45;;;;;;;31.05;15.40;;;;;;;;;;5040517;28;20109;-51
2023/02/11 03:48:15;;;;;;;30.95;16.88;;;;;;;;;;5040149;28;20056;-50
2023/02/11 03:50:46;;;;;;;35.67;15.65;;;;;;;;;;5040708;28;20054;-53
2023/02/11 03:53:15;;;;;;;30.15;14.85;;;;;;;;;;5039839;28;20068;-52
2023/02/11 03:55:43;;;;;;;32.63;14.95;;;;;;;;;;5040685;28;20049;-53
2023/02/11 03:58:10;;;;;;;33.97;15.70;;;;;;;;;;5040543;28;20053;-49
2023/02/11 04:00:40;;;;;;;30.30;14.18;;;;;;;;;;5043462;28;20046;-54
2023/02/11 04:03:08;;;;;;;32.95;15.35;;;;;;;;;;5044147;28;20563;-52
2023/02/11 04:05:35;;;;;;;32.83;15.80;;;;;;;;;;5044467;28;20046;-49
2023/02/11 04:08:04;;;;;;;30.25;15.07;;;;;;;;;;5045288;28;20537;-49
2023/02/11 04:10:31;;;;;;;27.00;13.13;;;;;;;;;;5045167;28;20041;-49
2023/02/11 04:12:58;;;;;;;31.52;14.48;;;;;;;;;;5044808;28;20053;-49
2023/02/11 04:15:25;;;;;;;30.90;14.23;;;;;;;;;;5031214;28;20123;-48
2023/02/11 04:17:52;;;;;;;28.83;13.95;;;;;;;;;;5025827;28;20080;-52
2023/02/11 04:20:19;;;;;;;24.38;12.77;;;;;;;;;;5043700;28;20445;-50
2023/02/11 04:22:46;;;;;;;25.75;12.32;;;;;;;;;;5043455;28;20057;-53
2023/02/11 04:25:14;;;;;;;25.08;12.80;;;;;;;;;;5044444;28;20053;-49
2023/02/11 04:27:41;;;;;;;25.33;12.15;;;;;;;;;;5044164;28;20095;-51
2023/02/11 04:30:09;;;;;;;25.65;12.20;;;;;;;;;;5044304;28;20057;-50
2023/02/11 04:32:36;;;;;;;24.73;12.57;;;;;;;;;;5044527;28;20100;-53
2023/02/11 04:35:03;;;;;;;26.38;14.13;;;;;;;;;;5045120;28;20062;-53
2023/02/11 04:37:30;;;;;;;27.13;13.65;;;;;;;;;;5044018;28;20041;-52
2023/02/11 04:39:56;;;;;;;24.13;12.10;;;;;;;;;;5044359;28;20045;-52
2023/02/11 04:42:25;;;;;;;25.10;12.40;;;;;;;;;;5043978;28;20499;-54
2023/02/11 04:44:51;;;;;;;20.23;10.50;;;;;;;;;;5044419;28;20049;-52
2023/02/11 04:47:19;;;;;;;19.30;10.07;;;;;;;;;;5029077;28;20057;-53
2023/02/11 04:49:45;;;;;;;22.27;10.38;;;;;;;;;;5024873;28;20053;-53
2023/02/11 04:52:12;;;;;;;22.38;11.35;;;;;;;;;;5030641;28;20045;-49
2023/02/11 04:54:39;;;;;;;20.73;10.98;;;;;;;;;;5044063;28;20049;-51
2023/02/11 04:57:06;;;;;;;23.63;11.48;;;;;;;;;;5043784;28;20045;-52
2023/02/11 04:59:35;;;;;;;20.65;12.02;;;;;;;;;;5044136;28;20053;-51
2023/02/11 05:02:03;;;;;;;23.85;12.55;;;;;;;;;;5042927;28;20462;-51
2023/02/11 05:04:29;;;;;;;22.48;11.63;;;;;;;;;;5026643;28;20061;-51
2023/02/11 05:06:56;;;;;;;23.65;11.73;;;;;;;;;;5046453;28;20045;-52
2023/02/11 05:09:23;;;;;;;22.80;12.02;;;;;;;;;;5032509;28;20118;-49
2023/02/11 05:11:50;;;;;;;23.65;11.75;;;;;;;;;;5031291;28;20049;-50
2023/02/11 05:14:17;;;;;;;22.33;11.52;;;;;;;;;;5032083;28;20095;-49
2023/02/11 05:16:45;;;;;;;23.95;11.75;;;;;;;;;;5024708;28;20104;-51
2023/02/11 05:19:12;;;;;;;23.00;11.13;;;;;;;;;;5012936;28;20481;-52
2023/02/11 05:21:38;;;;;;;21.60;11.35;;;;;;;;;;5031630;28;20057;-49
2023/02/11 05:24:06;;;;;;;18.60;10.65;;;;;;;;;;5032281;28;20053;-49
2023/02/11 05:26:33;;;;;;;27.45;12.48;;;;;;;;;;5032354;28;20430;-49
2023/02/11 05:29:00;;;;;;;26.02;11.93;;;;;;;;;;5032296;28;20104;-53
2023/02/11 05:31:27;;;;;;;23.38;11.73;;;;;;;;;;5031778;28;20057;-50
2023/02/11 05:33:55;;;;;;;20.55;10.65;;;;;;;;;;5031657;28;20068;-52
2023/02/11 05:36:22;;;;;;;24.83;11.27;;;;;;;;;;5032066;28;20095;-50
2023/02/11 05:38:49;;;;;;;20.70;10.88;;;;;;;;;;5031856;28;20407;-52
2023/02/11 05:41:16;;;;;;;22.23;11.82;;;;;;;;;;5031847;28;20060;-49
2023/02/11 05:43:43;;;;;;;21.15;11.40;;;;;;;;;;5031447;28;20042;-54
2023/02/11 05:46:10;;;;;;;22.67;11.65;;;;;;;;;;5031803;28;20053;-50
2023/02/11 05:48:37;;;;;;;23.13;10.48;;;;;;;;;;5032002;28;20064;-54
2023/02/11 05:51:06;;;;;;;26.33;12.65;;;;;;;;;;5032049;28;20103;-52
2023/02/11 05:53:32;;;;;;;23.38;11.93;;;;;;;;;;5031156;28;20173;-50
2023/02/11 05:56:01;;;;;;;24.52;11.75;;;;;;;;;;5031562;28;20041;-52
2023/02/11 05:58:28;;;;;;;25.70;12.70;;;;;;;;;;5031914;28;20049;-54
2023/02/11 06:00:55;;;;;;;24.25;12.50;;;;;;;;;;5031323;28;20049;-49
2023/02/11 06:03:22;;;;;;;24.10;13.27;;;;;;;;;;5031036;28;20533;-53
2023/02/11 06:05:48;;;;;;;32.83;13.77;;;;;;;;;;5031414;28;20107;-52
2023/02/11 06:08:17;;;;;;;32.17;14.48;;;;;;;;;;5031208;28;20049;-52
2023/02/11 06:10:45;;;;;;;28.35;14.13;;;;;;;;;;5031411;28;20060;-51
2023/02/11 06:13:12;;;;;;;29.08;13.82;;;;;;;;;;5030868;28;20049;-53
2023/02/11 06:15:39;;;;;;;25.20;13.95;;;;;;;;;;5028888;28;20707;-50
2023/02/11 06:18:06;;;;;;;23.15;12.30;;;;;;;;;;5011593;28;20046;-52
2023/02/11 06:20:33;;;;;;;20.88;11.50;;;;;;;;;;5012314;28;20451;-51
2023/02/11 06:23:00;;;;;;;25.40;11.50;;;;;;;;;;5030438;28;20128;-51
2023/02/11 06:25:28;;;;;;;18.67;10.85;;;;;;;;;;5031080;28;20491;-50
2023/02/11 06:27:55;;;;;;;21.50;11.63;;;;;;;;;;5030654;28;20091;-50
2023/02/11 06:30:22;;;;;;;21.08;9.77;;;;;;;;;;5030791;28;20053;-54
2023/02/11 06:32:49;;;;;;;19.13;9.45;;;;;;;;;;5030374;28;20111;-54
2023/02/11 06:35:16;;;;;;;26.63;10.68;;;;;;;;;;5030960;28;20045;-53
2023/02/11 06:37:43;;;;;;;20.73;9.82;;;;;;;;;;5030782;28;20132;-50
2023/02/11 06:40:11;;;;;;;20.40;9.82;;;;;;;;;;5030795;28;20128;-52
2023/02/11 06:42:39;;;;;;;22.27;10.80;;;;;;;;;;5030899;28;20526;-52
2023/02/11 06:45:08;;;;;;;23.08;11.32;;;;;;;;;;5030798;28;20060;-49
2023/02/11 06:47:35;;;;;;;20.33;11.90;;;;;;;;;;5030886;28;20132;-52
2023/02/11 06:50:02;;;;;;;22.98;10.82;;;;;;;;;;5015310;28;20050;-54
2023/02/11 06:52:29;;;;;;;24.88;11.05;;;;;;;;;;5011119;28;20107;-51
2023/02/11 06:54:55;;;;;;;18.92;9.50;;;;;;;;;;5029573;28;20056;-50
2023/02/11 06:57:22;;;;;;;23.85;10.93;;;;;;;;;;5030960;28;20080;-53
2023/02/11 06:59:51;;;;;;;20.30;10.40;;;;;;;;;;5031064;28;20053;-51
2023/02/11 07:02:17;;;;;;;20.35;10.20;;;;;;;;;;5030260;28;20053;-53
2023/02/11 07:04:44;;;;;;;21.42;10.70;;;;;;;;;;5030223;28;20057;-51
2023/02/11 07:07:11;;;;;;;21.27;9.93;;;;;;;;;;5041367;28;20080;-51
2023/02/11 07:09:38;;;;;;;21.58;10.10;;;;;;;;;;5030339;28;20068;-52
2023/02/11 07:12:05;;;;;;;22.25;10.23;;;;;;;;;;5030922;28;20107;-50
2023/02/11 07:14:32;;;;;;;21.95;9.65;;;;;;;;;;5031093;28;20521;-51
2023/02/11 07:17:00;;;;;;;22.08;10.98;;;;;;;;;;5030116;28;20485;-52
2023/02/11 07:19:27;;;;;;;17.80;9.20;;;;;;;;;;5019742;28;20396;-51
2023/02/11 07:21:54;;;;;;;20.60;10.05;;;;;;;;;;5010635;28;20112;-51
2023/02/11 07:24:22;;;;;;;23.23;11.30;;;;;;;;;;5028755;28;20096;-51
2023/02/11 07:26:49;;;;;;;22.77;10.15;;;;;;;;;;5015615;28;20057;-51
2023/02/11 07:29:18;;;;;;;22.95;10.85;;;;;;;;;;5030857;28;20049;-49
2023/02/11 07:31:45;;;;;;;22.95;10.43;;;;;;;;;;5030035;28;20057;-53
2023/02/11 07:34:13;;;;;;;24.95;11.52;;;;;;;;;;5029697;28;20060;-50
2023/02/11 07:36:42;;;;;;;22.73;9.98;;;;;;;;;;5030298;28;20061;-50
2023/02/11 07:39:09;;;;;;;23.08;10.70;;;;;;;;;;5030493;28;20099;-50
2023/02/11 07:41:36;;;;;;;21.25;10.90;;;;;;;;;;5030776;28;20057;-57
2023/02/11 07:44:03;;;;;;;23.67;11.63;;;;;;;;;;5030806;28;20054;-58
2023/02/11 07:46:30;;;;;;;24.60;10.88;;;;;;;;;;5030576;28;20080;-54
2023/02/11 07:48:57;;;;;;;21.08;11.38;;;;;;;;;;5030641;28;20079;-55
2023/02/11 07:51:27;;;;;;;20.92;10.32;;;;;;;;;;5030465;28;20050;-56
2023/02/11 07:53:55;;;;;;;22.80;10.52;;;;;;;;;;5030496;28;20053;-56
2023/02/11 07:56:22;;;;;;;22.80;11.00;;;;;;;;;;5030609;28;20050;-56
2023/02/11 07:58:50;;;;;;;24.15;12.05;;;;;;;;;;5030728;28;20049;-57
2023/02/11 08:01:21;;;;;;;24.75;11.98;;;;;;;;;;5030569;28;20045;-54
2023/02/11 08:03:48;;;;;;;25.35;12.70;;;;;;;;;;5030913;28;20495;-55
2023/02/11 08:06:16;;;;;;;24.58;12.02;;;;;;;;;;5030530;28;20045;-57
2023/02/11 08:08:45;;;;;;;22.73;11.13;;;;;;;;;;5030471;28;20138;-55
2023/02/11 08:11:14;;;;;;;23.00;12.13;;;;;;;;;;5030166;28;20081;-54
2023/02/11 08:13:42;;;;;;;24.00;10.23;;;;;;;;;;5030480;28;20404;-55
2023/02/11 08:16:09;;;;;;;25.40;11.10;;;;;;;;;;5030591;28;20479;-55
2023/02/11 08:18:36;;;;;;;21.00;10.07;;;;;;;;;;5030401;28;20049;-57
2023/02/11 08:21:07;;;;;;;24.65;11.25;;;;;;;;;;5030255;28;20053;-57
2023/02/11 08:23:36;;;;;;;25.42;10.95;;;;;;;;;;5030017;28;20136;-57
2023/02/11 08:26:07;;;;;;;20.17;10.43;;;;;;;;;;5030319;28;20104;-55
2023/02/11 08:28:36;;;;;;;18.63;9.90;;;;;;;;;;5030759;28;20054;-56
2023/02/11 08:31:06;;;;;;;19.67;9.55;;;;;;;;;;5031464;28;20081;-55
2023/02/11 08:33:34;;;;;;;19.40;9.80;;;;;;;;;;5029793;28;20574;-55
2023/02/11 08:36:02;;;;;;;19.75;9.75;;;;;;;;;;5030634;28;20061;-53
2023/02/11 08:38:29;;;;;;;19.50;10.52;;;;;;;;;;5030963;28;20049;-54
2023/02/11 08:40:59;;;;;;;21.80;9.88;;;;;;;;;;5030456;28;20100;-55
2023/02/11 08:43:33;;;;;;;23.17;11.07;;;;;;;;;;5030584;28;20417;-58
2023/02/11 08:46:01;;;;;;;20.77;10.63;;;;;;;;;;5031239;28;20499;-66
2023/02/11 08:48:31;;;;;;;22.23;10.98;;;;;;;;;;5034003;28;20049;-59
2023/02/11 08:50:58;;;;;;;25.75;13.43;;;;;;;;;;5034555;28;20475;-54
2023/02/11 08:53:25;;;;;;;24.50;11.50;;;;;;;;;;5033339;28;20060;-58
2023/02/11 08:55:54;;;;;;;22.88;11.68;;;;;;;;;;5033286;28;20056;-59
2023/02/11 08:58:22;;;;;;;24.95;11.77;;;;;;;;;;5033151;28;20103;-67
2023/02/11 09:00:50;;;;;;;24.92;11.15;;;;;;;;;;5032915;28;20054;-54
2023/02/11 09:03:17;;;;;;;20.83;11.00;;;;;;;;;;5033064;28;20164;-64
2023/02/11 09:05:46;;;;;;;30.08;14.38;;;;;;;;;;5033170;28;20050;-57
2023/02/11 09:08:15;;;;;;;26.20;13.10;;;;;;;;;;5033389;28;20569;-60
2023/02/11 09:10:42;;;;;;;26.25;13.07;;;;;;;;;;5032699;28;20176;-54
2023/02/11 09:13:09;;;;;;;27.67;12.52;;;;;;;;;;5032759;28;20518;-57
2023/02/11 09:15:36;;;;;;;27.17;12.80;;;;;;;;;;5032668;28;20050;-56
2023/02/11 09:18:05;;;;;;;26.80;12.82;;;;;;;;;;5032557;28;20100;-57
2023/02/11 09:20:32;;;;;;;25.75;13.02;;;;;;;;;;5032458;28;20384;-64
2023/02/11 09:22:59;;;;;;;25.58;13.07;;;;;;;;;;5032215;28;20414;-55
2023/02/11 09:25:26;;;;;;;30.02;13.18;;;;;;;;;;5032559;28;20095;-56
2023/02/11 09:27:53;;;;;;;29.63;14.40;;;;;;;;;;5032410;28;20053;-58
2023/02/11 09:30:20;;;;;;;27.58;14.23;;;;;;;;;;5032447;28;20136;-57
2023/02/11 09:32:47;;;;;;;26.70;13.68;;;;;;;;;;5032543;28;20490;-56
2023/02/11 09:35:16;;;;;;;28.17;13.73;;;;;;;;;;5033121;28;20355;-57
2023/02/11 09:37:42;;;;;;;28.60;13.63;;;;;;;;;;5032420;28;20058;-55
2023/02/11 09:40:10;;;;;;;27.58;13.63;;;;;;;;;;5032439;28;20057;-59
2023/02/11 09:42:43;;;;;;;33.83;13.02;;;;;;;;;;5032545;28;20560;-55
2023/02/11 09:45:18;;;;;;;30.52;14.57;;;;;;;;;;5032096;28;20598;-57
2023/02/11 09:47:54;;;;;;;25.48;12.52;;;;;;;;;;5032167;28;20072;-56
2023/02/11 09:50:28;;;;;;;28.42;13.40;;;;;;;;;;5032185;28;20553;-56
2023/02/11 09:53:00;;;;;;;29.83;14.05;;;;;;;;;;5031819;28;20057;-55
2023/02/11 09:55:30;;;;;;;31.70;13.75;;;;;;;;;;5032295;28;20057;-55
2023/02/11 09:57:58;;;;;;;27.17;13.70;;;;;;;;;;5031475;28;20140;-57
2023/02/11 10:00:28;;;;;;;37.95;14.05;;;;;;;;;;5032114;28;20053;-55
2023/02/11 10:03:42;;;;;;;28.15;14.13;;;;;;;;;;5031847;28;20095;-54
2023/02/11 10:06:38;;;;;;;29.70;13.82;;;;;;;;;;5007470;28;20423;-57
2023/02/11 10:09:27;;;;;;;30.88;14.20;;;;;;;;;;5030840;28;20568;-54
2023/02/11 10:12:01;;;;;;;25.52;13.13;;;;;;;;;;5024419;28;20065;-56
2023/02/11 10:14:54;;;;;;;30.50;14.18;;;;;;;;;;5031766;28;20049;-52
2023/02/11 10:17:30;;;;;;;31.33;14.35;;;;;;;;;;5031645;28;20534;-53
2023/02/11 10:20:11;;;;;;;27.67;14.32;;;;;;;;;;5031698;28;20053;-56
2023/02/11 10:22:43;;;;;;;34.90;15.90;;;;;;;;;;5031422;28;20045;-54
2023/02/11 10:25:19;;;;;;;35.05;15.73;;;;;;;;;;5031335;28;20646;-54
2023/02/11 10:27:47;;;;;;;29.60;15.65;;;;;;;;;;5031374;28;20203;-52
2023/02/11 10:30:22;;;;;;;33.05;15.00;;;;;;;;;;5031250;28;20046;-53
2023/02/11 10:32:52;;;;;;;33.47;14.32;;;;;;;;;;5031126;28;20080;-56
2023/02/11 10:35:21;;;;;;;32.00;15.38;;;;;;;;;;5031194;28;20050;-56
2023/02/11 10:37:50;;;;;;;29.75;15.73;;;;;;;;;;5031222;28;20449;-56
2023/02/11 10:40:19;;;;;;;30.77;13.13;;;;;;;;;;5031292;28;20533;-57
2023/02/11 10:42:48;;;;;;;31.70;15.43;;;;;;;;;;5030894;28;20057;-54
2023/02/11 10:45:24;;;;;;;31.38;15.02;;;;;;;;;;5031002;28;20053;-53
2023/02/11 10:47:51;;;;;;;30.35;15.02;;;;;;;;;;5031327;28;20059;-53
2023/02/11 10:50:22;;;;;;;28.48;14.45;;;;;;;;;;5031019;28;20060;-57
2023/02/11 10:52:50;;;;;;;28.50;14.35;;;;;;;;;;5030924;28;20093;-57
2023/02/11 10:55:20;;;;;;;40.10;17.63;;;;;;;;;;5030870;28;20111;-56
2023/02/11 10:57:55;;;;;;;32.80;16.60;;;;;;;;;;5030984;28;20128;-53
2023/02/11 11:00:36;;;;;;;30.98;14.50;;;;;;;;;;5030869;28;20123;-54
2023/02/11 11:03:06;;;;;;;32.10;14.65;;;;;;;;;;5030958;28;20498;-58
2023/02/11 11:05:36;;;;;;;31.42;14.40;;;;;;;;;;5030924;28;20486;-56
2023/02/11 11:08:06;;;;;;;31.30;14.38;;;;;;;;;;5030747;28;20050;-57
2023/02/11 11:10:42;;;;;;;29.40;12.93;;;;;;;;;;5030179;28;20438;-54
2023/02/11 11:13:28;;;;;;;31.25;15.43;;;;;;;;;;5030837;28;20084;-55
2023/02/11 11:16:23;;;;;;;29.73;13.15;;;;;;;;;;5030835;28;20487;-54
2023/02/11 11:18:52;;;;;;;30.45;13.38;;;;;;;;;;5006818;28;20057;-57
2023/02/11 11:21:22;;;;;;;33.53;14.30;;;;;;;;;;5030747;28;20053;-58
2023/02/11 11:23:55;;;;;;;30.10;12.63;;;;;;;;;;5030491;28;20053;-58
2023/02/11 11:26:22;;;;;;;23.92;11.90;;;;;;;;;;5030662;28;20148;-57
2023/02/11 11:28:58;;;;;;;25.08;12.15;;;;;;;;;;5030469;28;20049;-55
2023/02/11 11:31:30;;;;;;;28.63;12.80;;;;;;;;;;5030364;28;20049;-57
2023/02/11 11:33:59;;;;;;;26.13;13.00;;;;;;;;;;5030546;28;20057;-56
2023/02/11 11:36:34;;;;;;;25.23;11.98;;;;;;;;;;5030481;28;20053;-56
2023/02/11 11:39:11;;;;;;;24.67;12.35;;;;;;;;;;5030360;28;20050;-56
2023/02/11 11:41:49;;;;;;;31.00;13.00;;;;;;;;;;5029996;28;20053;-54
2023/02/11 11:44:24;;;;;;;26.17;12.27;;;;;;;;;;5029966;28;20053;-58
2023/02/11 11:47:17;;;;;;;26.77;12.52;;;;;;;;;;5030328;28;20050;-57
2023/02/11 11:49:49;;;;;;;26.67;13.30;;;;;;;;;;5030056;28;20045;-54
2023/02/11 11:52:22;;;;;;;26.27;12.55;;;;;;;;;;5029920;28;20641;-57
2023/02/11 11:54:59;;;;;;;27.38;11.85;;;;;;;;;;5030385;28;20057;-54
2023/02/11 11:57:29;;;;;;;28.75;13.85;;;;;;;;;;5030039;28;20057;-54
2023/02/11 11:59:57;;;;;;;28.92;13.68;;;;;;;;;;5030339;28;20053;-53
2023/02/11 12:03:00;;;;;;;31.98;14.48;;;;;;;;;;5030116;28;20096;-56
2023/02/11 12:05:36;;;;;;;28.35;12.93;;;;;;;;;;5030449;28;20058;-55
2023/02/11 12:08:14;;;;;;;31.85;12.80;;;;;;;;;;5029996;28;20053;-55
2023/02/11 12:10:57;;;;;;;26.85;14.60;;;;;;;;;;5030759;28;20115;-57
2023/02/11 12:13:45;;;;;;;28.90;13.93;;;;;;;;;;5030009;28;20045;-55
2023/02/11 12:16:23;;;;;;;29.27;13.07;;;;;;;;;;5030072;28;20049;-53
2023/02/11 12:19:17;;;;;;;27.10;13.25;;;;;;;;;;5030226;28;20052;-58
2023/02/11 12:21:52;;;;;;;29.67;13.23;;;;;;;;;;5033712;28;20491;-55
2023/02/11 12:24:32;;;;;;;25.67;11.88;;;;;;;;;;5033960;28;20084;-53
2023/02/11 12:27:05;;;;;;;26.20;13.37;;;;;;;;;;5034146;28;20053;-54
2023/02/11 12:29:41;;;;;;;29.10;13.20;;;;;;;;;;5034169;28;20317;-56
2023/02/11 12:32:18;;;;;;;25.30;12.80;;;;;;;;;;5033959;28;20198;-57
2023/02/11 12:35:23;;;;;;;30.20;12.00;;;;;;;;;;5033811;28;20580;-53
2023/02/11 12:38:10;;;;;;;26.05;12.63;;;;;;;;;;5033506;28;20049;-55
2023/02/11 12:40:44;;;;;;;25.40;12.88;;;;;;;;;;5033286;28;20143;-54
2023/02/11 12:43:21;;;;;;;25.27;12.57;;;;;;;;;;5033410;28;20115;-56
2023/02/11 12:46:07;;;;;;;28.45;12.65;;;;;;;;;;5033341;28;20166;-54
2023/02/11 12:48:46;;;;;;;24.73;13.10;;;;;;;;;;5033410;28;20053;-57
2023/02/11 12:51:23;;;;;;;26.70;12.38;;;;;;;;;;5033207;28;20110;-57
2023/02/11 12:54:10;;;;;;;22.35;11.70;;;;;;;;;;5033425;28;20046;-57
2023/02/11 12:56:43;;;;;;;27.52;12.98;;;;;;;;;;5033439;28;20077;-57
2023/02/11 12:59:29;;;;;;;26.60;12.68;;;;;;;;;;5033325;28;20107;-56
2023/02/11 13:01:58;;;;;;;28.27;13.00;;;;;;;;;;5033363;28;20057;-54
2023/02/11 13:04:29;;;;;;;28.40;12.65;;;;;;;;;;5033280;28;20096;-54
2023/02/11 13:10:34;;;;;;;25.00;11.68;;;;;;;;;;5013597;28;20049;-65
2023/02/11 13:13:18;;;;;;;26.85;11.38;;;;;;;;;;5049683;28;20052;-55
2023/02/11 13:15:50;;;;;;;27.05;12.10;;;;;;;;;;5049662;28;20506;-66
2023/02/11 13:18:27;;;;;;;26.50;12.05;;;;;;;;;;5035394;28;20084;-64
2023/02/11 13:20:59;;;;;;;24.17;11.07;;;;;;;;;;5053214;28;20053;-58
2023/02/11 13:23:35;;;;;;;27.60;12.80;;;;;;;;;;5052835;28;20049;-51
2023/02/11 13:26:08;;;;;;;27.10;11.80;;;;;;;;;;5053046;28;20048;-52
2023/02/11 13:28:45;;;;;;;26.90;12.20;;;;;;;;;;5052858;28;20053;-52
2023/02/11 13:31:15;;;;;;;23.83;11.10;;;;;;;;;;5052245;28;20048;-58
2023/02/11 13:33:43;;;;;;;23.27;11.13;;;;;;;;;;5052483;28;20056;-61
2023/02/11 13:36:21;;;;;;;25.52;10.32;;;;;;;;;;5035174;28;20041;-58
2023/02/11 13:39:00;;;;;;;20.20;10.05;;;;;;;;;;5032927;28;20049;-67
2023/02/11 13:41:34;;;;;;;30.60;12.35;;;;;;;;;;5032266;28;20124;-65
2023/02/11 13:44:21;;;;;;;25.52;11.13;;;;;;;;;;5032416;28;20503;-67
2023/02/11 13:46:56;;;;;;;25.33;11.23;;;;;;;;;;5032477;28;20519;-54
2023/02/11 13:49:25;;;;;;;27.52;12.90;;;;;;;;;;5032403;28;20095;-57
2023/02/11 13:51:54;;;;;;;22.80;11.18;;;;;;;;;;5032036;28;20095;-56
2023/02/11 13:54:26;;;;;;;27.55;11.95;;;;;;;;;;5032247;28;20061;-55
2023/02/11 13:57:31;;;;;;;26.50;11.57;;;;;;;;;;5032705;28;20157;-57
2023/02/11 14:00:02;;;;;;;28.17;11.07;;;;;;;;;;5032345;28;20077;-56
2023/02/11 14:11:51;;;;;;;22.25;11.00;;;;;;;;;;4989707;28;20057;-57
2023/02/11 14:14:22;;;;;;;25.73;11.35;;;;;;;;;;4945826;28;20090;-56
2023/02/11 14:17:29;;;;;;;24.90;11.75;;;;;;;;;;5017650;28;20142;-54
2023/02/11 14:19:58;;;;;;;25.20;12.32;;;;;;;;;;5032165;28;20206;-55
2023/02/11 14:22:28;;;;;;;27.83;12.15;;;;;;;;;;5031695;28;20506;-50
2023/02/11 14:24:57;;;;;;;24.30;13.02;;;;;;;;;;5032321;28;20045;-53
2023/02/11 14:27:29;;;;;;;21.90;11.85;;;;;;;;;;5031547;28;20084;-56
2023/02/11 14:30:35;;;;;;;28.00;13.00;;;;;;;;;;5031689;28;20050;-55
2023/02/11 14:33:43;;;;;;;27.08;12.10;;;;;;;;;;5031975;28;20053;-55
2023/02/11 14:36:34;;;;;;;26.40;13.18;;;;;;;;;;5031856;28;20103;-55
2023/02/11 14:39:08;;;;;;;27.73;13.30;;;;;;;;;;5031747;28;20045;-56
2023/02/11 14:41:40;;;;;;;27.10;13.63;;;;;;;;;;5032944;28;20049;-54
2023/02/11 14:44:15;;;;;;;28.05;14.65;;;;;;;;;;5031305;28;20111;-51
2023/02/11 14:46:45;;;;;;;31.40;15.50;;;;;;;;;;5032222;28;20495;-50
2023/02/11 14:49:21;;;;;;;30.45;15.27;;;;;;;;;;5031279;28;20640;-51
2023/02/11 14:51:49;;;;;;;32.60;15.32;;;;;;;;;;5031312;28;20099;-52
2023/02/11 14:54:20;;;;;;;33.42;16.58;;;;;;;;;;5031665;28;20473;-51
2023/02/11 14:56:46;;;;;;;29.65;15.15;;;;;;;;;;5031863;28;20140;-53
2023/02/11 14:59:17;;;;;;;30.42;15.43;;;;;;;;;;5031752;28;20053;-53
2023/02/11 15:01:48;;;;;;;28.13;15.50;;;;;;;;;;5031062;28;20559;-51